createdAt,value
2017-11-14T00:02:14.996Z,7.50
2017-11-14T00:07:43.149Z,8.47
2017-11-14T00:13:13.282Z,6.87
2017-11-14T00:18:41.450Z,8.40
2017-11-14T00:24:09.714Z,7.90
2017-11-14T00:29:40.625Z,8.37
2017-11-14T00:35:08.788Z,6.90
2017-11-14T00:40:36.924Z,8.80
2017-11-14T00:46:05.072Z,8.20
2017-11-14T00:51:50.219Z,8.70
2017-11-14T00:57:18.370Z,9.90
2017-11-14T01:02:46.513Z,10.37
2017-11-14T01:08:15.677Z,10.00
2017-11-14T01:13:44.572Z,9.93
2017-11-14T01:19:12.736Z,11.13
2017-11-14T01:24:41.657Z,10.23
2017-11-14T01:30:10.611Z,11.17
2017-11-14T01:35:39.548Z,11.17
2017-11-14T01:41:08.519Z,9.17
2017-11-14T01:46:38.655Z,9.57
2017-11-14T01:52:07.576Z,9.63
2017-11-14T01:57:35.989Z,10.43
2017-11-14T02:03:04.421Z,9.77
2017-11-14T02:08:32.568Z,10.63
2017-11-14T02:14:01.484Z,9.07
2017-11-14T02:19:34.738Z,9.40
2017-11-14T02:25:03.698Z,9.67
2017-11-14T02:30:32.635Z,8.33
2017-11-14T02:36:05.351Z,8.00
2017-11-14T02:41:34.265Z,9.30
2017-11-14T02:47:02.435Z,8.43
2017-11-14T02:52:30.602Z,11.07
2017-11-14T02:57:58.828Z,10.30
2017-11-14T03:03:26.979Z,8.67
2017-11-14T03:08:55.956Z,9.10
2017-11-14T03:14:24.145Z,9.30
2017-11-14T03:19:53.150Z,8.90
2017-11-14T03:25:22.153Z,8.70
2017-11-14T03:30:55.475Z,8.27
2017-11-14T03:36:23.648Z,9.23
2017-11-14T03:41:51.820Z,9.97
2017-11-14T03:47:19.986Z,10.10
2017-11-14T03:52:48.164Z,9.13
2017-11-14T03:58:16.365Z,11.63
2017-11-14T04:03:48.453Z,9.20
2017-11-14T04:09:16.604Z,9.80
2017-11-14T04:14:55.131Z,9.83
2017-11-14T04:20:23.282Z,9.83
2017-11-14T04:25:54.484Z,9.30
2017-11-14T04:31:23.449Z,10.60
2017-11-14T04:36:51.617Z,9.87
2017-11-14T04:42:20.553Z,11.47
2017-11-14T04:47:49.468Z,9.60
2017-11-14T04:53:19.568Z,10.20
2017-11-14T04:58:48.666Z,11.20
2017-11-14T05:04:16.884Z,8.80
2017-11-14T05:09:45.054Z,8.40
2017-11-14T05:15:13.978Z,9.10
2017-11-14T05:21:02.629Z,9.87
2017-11-14T05:26:31.043Z,9.20
2017-11-14T05:32:02.469Z,8.10
2017-11-14T05:37:31.642Z,9.60
2017-11-14T05:43:01.199Z,9.97
2017-11-14T05:48:30.159Z,10.20
2017-11-14T05:54:00.295Z,10.30
2017-11-14T05:59:29.244Z,9.20
2017-11-14T06:04:57.417Z,10.00
2017-11-14T06:10:25.603Z,8.70
2017-11-14T06:15:53.866Z,10.70
2017-11-14T06:21:22.157Z,10.50
2017-11-14T06:26:50.326Z,10.70
2017-11-14T06:32:18.633Z,8.53
2017-11-14T06:37:49.645Z,8.80
2017-11-14T06:43:17.950Z,9.60
2017-11-14T06:48:46.121Z,9.20
2017-11-14T06:54:14.269Z,9.30
2017-11-14T06:59:57.058Z,9.53
2017-11-14T07:05:26.009Z,9.20
2017-11-14T07:10:55.474Z,10.90
2017-11-14T07:16:23.676Z,9.67
2017-11-14T07:21:53.169Z,10.70
2017-11-14T07:27:21.336Z,11.10
2017-11-14T07:32:49.477Z,11.00
2017-11-14T07:38:18.396Z,11.20
2017-11-14T07:43:46.568Z,12.17
2017-11-14T07:49:14.721Z,11.97
2017-11-14T07:54:42.872Z,13.47
2017-11-14T08:00:11.808Z,12.70
2017-11-14T08:05:43.182Z,12.80
2017-11-14T08:11:13.688Z,11.10
2017-11-14T08:16:55.164Z,11.53
2017-11-14T08:22:25.522Z,11.83
2017-11-14T08:27:53.734Z,12.97
2017-11-14T08:33:21.888Z,11.97
2017-11-14T08:38:51.764Z,12.33
2017-11-14T08:44:20.670Z,11.97
2017-11-14T08:49:48.874Z,12.10
2017-11-14T08:55:17.035Z,11.60
2017-11-14T09:00:45.185Z,13.77
2017-11-14T09:06:14.113Z,13.07
2017-11-14T09:11:55.067Z,12.27
2017-11-14T09:17:24.411Z,12.70
2017-11-14T09:22:52.654Z,11.40
2017-11-14T09:28:20.829Z,10.00
2017-11-14T09:33:49.749Z,10.27
2017-11-14T09:39:26.712Z,9.47
2017-11-14T09:44:55.950Z,7.30
2017-11-14T09:50:24.211Z,6.20
2017-11-14T09:55:52.380Z,6.30
2017-11-14T10:01:21.328Z,5.70
2017-11-14T10:06:49.695Z,5.60
2017-11-14T10:12:17.883Z,5.50
2017-11-14T10:17:46.041Z,13.70
2017-11-14T10:23:14.207Z,13.50
2017-11-14T10:28:43.172Z,13.83
2017-11-14T10:34:11.326Z,14.47
2017-11-14T10:39:39.479Z,13.03
2017-11-14T10:45:08.401Z,14.00
2017-11-14T10:50:36.556Z,14.40
2017-11-14T10:56:04.704Z,14.20
2017-11-14T11:01:32.900Z,16.67
2017-11-14T11:07:01.079Z,15.33
2017-11-14T11:12:29.248Z,16.03
2017-11-14T11:17:57.428Z,17.90
2017-11-14T11:23:25.953Z,17.43
2017-11-14T11:28:56.563Z,15.90
2017-11-14T11:34:24.741Z,16.20
2017-11-14T11:39:54.853Z,16.50
2017-11-14T11:45:23.153Z,15.60
2017-11-14T11:50:52.064Z,15.30
2017-11-14T11:56:20.209Z,13.33
2017-11-14T12:01:49.132Z,15.00
2017-11-14T12:07:17.298Z,16.77
2017-11-14T12:12:45.518Z,16.30
2017-11-14T12:18:13.712Z,16.57
2017-11-14T12:23:53.909Z,16.40
2017-11-14T12:29:22.843Z,16.70
2017-11-14T12:34:51.778Z,15.97
2017-11-14T12:40:20.706Z,15.03
2017-11-14T12:45:48.878Z,13.27
2017-11-14T12:51:21.413Z,14.67
2017-11-14T12:56:50.439Z,14.47
2017-11-14T13:02:18.608Z,14.63
2017-11-14T13:07:46.765Z,13.73
2017-11-14T13:13:15.692Z,13.90
2017-11-14T13:18:43.866Z,13.20
2017-11-14T13:24:12.014Z,13.57
2017-11-14T13:29:40.161Z,13.17
2017-11-14T13:35:09.078Z,15.23
2017-11-14T13:40:38.004Z,12.20
2017-11-14T13:46:06.165Z,12.10
2017-11-14T13:51:34.311Z,12.07
2017-11-14T13:57:02.470Z,13.57
2017-11-14T14:02:31.510Z,12.90
2017-11-14T14:08:00.430Z,13.90
2017-11-14T14:13:28.819Z,13.07
2017-11-14T14:18:56.981Z,14.53
2017-11-14T14:24:25.151Z,15.20
2017-11-14T14:29:53.322Z,15.93
2017-11-14T14:35:22.264Z,15.53
2017-11-14T14:40:50.396Z,16.53
2017-11-14T14:46:18.542Z,17.17
2017-11-14T14:51:46.688Z,16.87
2017-11-14T14:57:14.856Z,18.47
2017-11-14T15:02:43.772Z,23.00
2017-11-14T15:08:12.146Z,20.47
2017-11-14T15:13:40.300Z,21.77
2017-11-14T15:19:08.448Z,22.30
2017-11-14T15:24:49.262Z,19.00
2017-11-14T15:30:17.404Z,21.93
2017-11-14T15:35:46.305Z,20.77
2017-11-14T15:41:14.456Z,21.67
2017-11-14T15:46:42.613Z,21.70
2017-11-14T15:52:10.756Z,22.77
2017-11-14T15:57:38.938Z,25.37
2017-11-14T16:03:07.092Z,25.30
2017-11-14T16:08:35.249Z,22.80
2017-11-14T16:14:04.161Z,23.23
2017-11-14T16:19:32.360Z,25.27
2017-11-14T16:25:00.721Z,22.80
2017-11-14T16:30:29.715Z,27.57
2017-11-14T16:35:58.003Z,26.17
2017-11-14T16:41:26.228Z,26.40
2017-11-14T16:46:54.457Z,24.00
2017-11-14T16:52:23.341Z,34.70
2017-11-14T16:57:51.500Z,28.77
2017-11-14T17:03:20.410Z,25.50
2017-11-14T17:08:48.573Z,26.30
2017-11-14T17:14:16.720Z,26.17
2017-11-14T17:19:55.321Z,22.87
2017-11-14T17:25:23.482Z,22.13
2017-11-14T17:30:55.703Z,26.40
2017-11-14T17:36:32.406Z,27.03
2017-11-14T17:42:11.864Z,23.53
2017-11-14T17:47:40.009Z,25.53
2017-11-14T17:53:08.916Z,25.87
2017-11-14T17:58:37.075Z,24.53
2017-11-14T18:04:05.212Z,26.90
2017-11-14T18:09:34.306Z,24.90
2017-11-14T18:15:06.228Z,24.90
2017-11-14T18:20:35.148Z,24.27
2017-11-14T18:26:03.553Z,25.60
2017-11-14T18:31:32.351Z,23.50
2017-11-14T18:37:00.554Z,23.77
2017-11-14T18:42:36.122Z,26.20
2017-11-14T18:48:04.281Z,28.57
2017-11-14T18:53:40.729Z,21.30
2017-11-14T18:59:08.882Z,24.87
2017-11-14T19:04:41.111Z,25.97
2017-11-14T19:10:14.259Z,23.77
2017-11-14T19:15:44.281Z,24.80
2017-11-14T19:21:12.463Z,26.00
2017-11-14T19:26:40.697Z,24.37
2017-11-14T19:32:09.043Z,26.00
2017-11-14T19:37:37.177Z,21.93
2017-11-14T19:43:05.326Z,24.77
2017-11-14T19:48:35.762Z,24.73
2017-11-14T19:54:03.988Z,20.97
2017-11-14T19:59:34.112Z,20.30
2017-11-14T20:05:05.373Z,20.90
2017-11-14T20:10:54.522Z,25.30
2017-11-14T20:16:22.668Z,24.77
2017-11-14T20:21:50.818Z,23.87
2017-11-14T20:27:19.724Z,22.63
2017-11-14T20:32:56.037Z,23.50
2017-11-14T20:38:24.204Z,21.70
2017-11-14T20:43:52.365Z,23.63
2017-11-14T20:49:21.456Z,23.13
2017-11-14T20:54:50.465Z,20.80
2017-11-14T21:00:32.571Z,21.33
2017-11-14T21:06:00.864Z,21.83
2017-11-14T21:11:33.368Z,21.30
2017-11-14T21:17:01.560Z,23.83
2017-11-14T21:22:33.574Z,22.97
2017-11-14T21:28:01.831Z,21.80
2017-11-14T21:33:33.245Z,19.93
2017-11-14T21:39:07.906Z,22.30
2017-11-14T21:44:38.154Z,23.77
2017-11-14T21:50:06.300Z,22.00
2017-11-14T21:55:34.460Z,20.80
2017-11-14T22:01:09.462Z,20.10
2017-11-14T22:12:50.892Z,21.03
2017-11-14T22:18:19.988Z,20.63
2017-11-14T22:23:53.691Z,21.70
2017-11-14T22:29:23.541Z,20.77
2017-11-14T22:34:56.479Z,21.47
2017-11-14T22:40:25.673Z,23.30
2017-11-14T22:45:59.235Z,19.23
2017-11-14T22:51:28.188Z,21.27
2017-11-14T22:56:59.913Z,18.67
2017-11-14T23:02:29.053Z,20.00
2017-11-14T23:08:01.214Z,19.43
2017-11-14T23:13:29.479Z,17.87
2017-11-14T23:18:58.409Z,19.07
2017-11-14T23:24:26.595Z,18.70
2017-11-14T23:29:54.765Z,20.80
2017-11-14T23:35:43.774Z,18.60
2017-11-14T23:41:13.877Z,16.93
2017-11-14T23:46:46.457Z,16.80
2017-11-14T23:52:15.375Z,17.00
2017-11-14T23:57:43.540Z,17.30
